Latest Weather Observations for Samuel Hill

IDQ60801

Issued at 10:02 pm EST Tuesday 6 December 2016 (issued every 30 minutes, with the page automatically refreshed every 10 minutes)

About weather observations | Map of weather stations | Latest weather observations for QLD | Other Formats
Station Details ID: 033308 Name: SAMUEL HILL AERO Lat: -22.74 Lon: 150.66 Height: 31.0 m
Data from the previous 72 hours. | See also: Recent months at Samuel Hill
Date/Time
EST
Temp
°C
App
Temp
°C
Dew
Point
°C
Rel
Hum
%
Delta-T
°C
Wind Press
QNH
hPa
Press
MSL
hPa
Rain since
9am
mm
Dir  Spd
km/h
Gust
km/h
Spd
kts
Gust
kts
06/05:30pm - - - - - - - - - - 1012.8 1012.6 -
06/05:00pm - - - - - - - - - - 1012.8 1012.6 -
06/04:30pm - - - - - - - - - - 1012.9 1012.7 -
06/04:00pm - - - - - - - - - - 1013.2 1013.0 -
06/03:30pm - - - - - - - - - - 1013.2 1013.0 -
06/03:00pm - - - - - - - - - - 1013.5 1013.3 -
06/02:30pm - - - - - - - - - - 1013.8 1013.6 -
06/02:00pm - - - - - - - - - - 1014.1 1013.9 -
06/01:30pm - - - - - - - - - - 1014.4 1014.2 -
06/01:00pm - - - - - - - - - - 1014.7 1014.5 -
06/12:30pm - - - - - - - - - - 1015.0 1014.8 -
06/12:00pm - - - - - - - - - - 1015.2 1015.0 -
06/11:30am - - - - - - - - - - 1015.5 1015.3 -
06/11:00am - - - - - - - - - - 1015.8 1015.6 -
06/10:30am - - - - - - - - - - 1016.0 1015.8 -
06/10:00am - - - - - - - - - - 1016.0 1015.8 -
06/09:30am - - - - - - - - - - 1016.1 1015.9 -
06/09:00am - - - - - - - - - - 1016.2 1016.0 -
06/08:30am - - - - - - - - - - 1016.2 1016.0 -
06/08:00am - - - - - - - - - - 1016.1 1015.9 -
06/07:30am - - - - - - - - - - 1015.9 1015.7 -
06/07:00am - - - - - - - - - - 1015.5 1015.3 -
06/06:30am - - - - - - - - - - 1015.1 1014.9 -
06/06:00am - - - - - - - - - - 1014.7 1014.5 -
06/05:30am - - - - - - - - - - 1014.9 1014.7 -
06/05:00am - - - - - - - - - - 1014.6 1014.4 -
06/04:30am - - - - - - - - - - 1014.1 1013.9 -
06/04:00am - - - - - - - - - - 1013.8 1013.6 -
06/03:30am - - - - - - - - - - 1013.7 1013.5 -
06/03:00am - - - - - - - - - - 1013.6 1013.4 -
06/02:30am - - - - - - - - - - 1013.7 1013.5 -
06/02:00am - - - - - - - - - - 1013.7 1013.5 -
06/01:30am - - - - - - - - - - 1013.6 1013.4 -
06/01:00am - - - - - - - - - - 1013.7 1013.5 -
06/12:30am - - - - - - - - - - 1013.8 1013.6 -
06/12:00am - - - - - - - - - - 1014.1 1013.9 -
 
Date/Time
EST
Temp
°C
App
Temp
°C
Dew
Point
°C
Rel
Hum
%
Delta-T
°C
Wind Press
QNH
hPa
Press
MSL
hPa
Rain since
9am
mm
Dir  Spd
km/h
Gust
km/h
Spd
kts
Gust
kts
05/11:30pm - - - - - - - - - - 1014.4 1014.2 -
05/11:00pm - - - - - - - - - - 1014.4 1014.2 -
05/10:30pm - - - - - - - - - - 1014.6 1014.4 -
05/10:00pm - - - - - - - - - - 1014.8 1014.6 -
05/09:30pm - - - - - - - - - - 1014.8 1014.6 -
05/09:00pm - - - - - - - - - - 1014.8 1014.6 -
05/08:30pm - - - - - - - - - - 1014.7 1014.5 -
05/08:00pm - - - - - - - - - - 1014.4 1014.2 -
05/07:30pm - - - - - - - - - - 1014.2 1014.0 -
05/07:00pm - - - - - - - - - - 1014.0 1013.8 -
05/06:30pm - - - - - - - - - - 1013.6 1013.4 -
05/06:00pm - - - - - - - - - - 1013.3 1013.1 -
05/05:30pm - - - - - - - - - - 1013.0 1012.8 -
05/05:00pm - - - - - - - - - - 1012.7 1012.5 -
05/04:30pm - - - - - - - - - - 1012.5 1012.3 -
05/04:00pm - - - - - - - - - - 1012.5 1012.3 -
05/03:30pm - - - - - - - - - - 1012.5 1012.3 -
05/03:00pm - - - - - - - - - - 1012.6 1012.4 -
05/02:30pm - - - - - - - - - - 1012.9 1012.7 -
05/02:00pm - - - - - - - - - - 1013.2 1013.0 -
05/01:30pm - - - - - - - - - - 1013.6 1013.4 -
05/01:00pm - - - - - - - - - - 1013.8 1013.6 -
05/12:30pm - - - - - - - - - - 1014.1 1013.9 -
05/12:00pm - - - - - - - - - - 1014.4 1014.2 -
05/11:30am - - - - - - - - - - 1014.9 1014.7 -
05/11:00am - - - - - - - - - - 1015.3 1015.1 -
05/10:30am - - - - - - - - - - 1015.6 1015.4 -
05/10:00am - - - - - - - - - - 1015.8 1015.6 -
05/09:30am - - - - - - - - - - 1016.1 1015.9 -
05/09:00am - - - - - - - - - - 1016.3 1016.1 -
05/08:30am - - - - - - - - - - 1016.4 1016.2 -
05/08:00am - - - - - - - - - - 1016.5 1016.3 -
05/07:30am - - - - - - - - - - 1016.6 1016.4 -
05/07:00am - - - - - - - - - - 1016.3 1016.1 -
05/06:30am - - - - - - - - - - 1015.9 1015.7 -
05/06:00am - - - - - - - - - - 1015.6 1015.4 -
05/05:30am - - - - - - - - - - 1015.4 1015.2 -
05/05:00am - - - - - - - - - - 1014.8 1014.6 -
05/04:30am - - - - - - - - - - 1014.5 1014.3 -
05/04:00am - - - - - - - - - - 1014.3 1014.1 -
05/03:30am - - - - - - - - - - 1014.2 1014.0 -
05/03:00am - - - - - - - - - - 1014.1 1013.9 -
05/02:30am - - - - - - - - - - 1014.1 1013.9 -
05/02:00am - - - - - - - - - - 1013.9 1013.7 -
05/01:30am - - - - - - - - - - 1014.2 1014.0 -
05/01:00am - - - - - - - - - - 1014.4 1014.2 -
05/12:30am - - - - - - - - - - 1014.7 1014.5 -
05/12:00am - - - - - - - - - - 1014.9 1014.7 -
 
Date/Time
EST
Temp
°C
App
Temp
°C
Dew
Point
°C
Rel
Hum
%
Delta-T
°C
Wind Press
QNH
hPa
Press
MSL
hPa
Rain since
9am
mm
Dir  Spd
km/h
Gust
km/h
Spd
kts
Gust
kts
04/11:30pm 19.5 22.1 17.6 89 1.2 CALM 0 2 0 1 1014.9 1014.7 0.0
04/11:00pm 19.6 22.2 17.4 87 1.3 CALM 0 0 0 0 1015.2 1015.0 0.0
04/10:30pm 19.9 22.6 17.7 87 1.4 CALM 0 0 0 0 1015.1 1014.9 0.0
04/10:00pm 20.6 23.5 18.2 86 1.5 CALM 0 9 0 5 1015.1 1014.9 0.0
04/09:30pm 21.1 24.0 18.3 84 1.7 CALM 0 0 0 0 1015.1 1014.9 0.0
04/09:00pm 21.7 24.9 18.9 84 1.8 CALM 0 0 0 0 1014.9 1014.7 0.0
04/08:30pm 22.6 26.0 19.4 82 2.0 CALM 0 0 0 0 1014.6 1014.4 0.0
04/08:00pm 24.0 26.6 20.1 79 2.5 N 6 7 3 4 1014.3 1014.1 0.0
04/07:30pm 24.6 27.2 20.5 78 2.7 NNE 7 11 4 6 1014.0 1013.8 0.0
04/07:00pm 25.2 27.3 20.9 77 2.8 NNE 11 17 6 9 1013.8 1013.6 0.0
04/06:30pm 25.8 26.9 20.4 72 3.5 NNE 15 20 8 11 1013.5 1013.3 0.0
04/06:00pm 26.7 27.3 20.3 68 4.2 NNE 17 24 9 13 1013.2 1013.0 0.0
04/05:30pm 27.6 27.6 20.2 64 4.9 NNE 20 28 11 15 1012.8 1012.6 0.0
04/05:00pm 28.5 29.1 20.2 60 5.5 NNE 17 24 9 13 1012.7 1012.5 0.0
04/04:30pm 30.1 30.6 20.9 57 6.1 NE 19 24 10 13 1012.4 1012.2 0.0
04/04:00pm 30.2 30.3 19.9 54 6.8 NNE 19 30 10 16 1012.3 1012.1 0.0
04/03:30pm 30.7 30.6 20.0 52 7.1 NE 20 30 11 16 1012.2 1012.0 0.0
04/03:00pm 31.3 31.7 19.9 50 7.5 NNE 17 30 9 16 1012.5 1012.3 0.0
04/02:30pm 31.7 32.3 20.3 50 7.6 NNE 17 28 9 15 1012.9 1012.7 0.0
04/02:00pm 31.7 32.3 20.3 50 7.6 N 17 30 9 16 1013.1 1012.9 0.0
04/01:30pm 31.4 31.9 20.0 50 7.5 N 17 32 9 17 1013.5 1013.3 0.0
04/01:00pm 32.1 33.1 21.0 52 7.4 N 17 26 9 14 1013.7 1013.5 0.0
04/12:30pm 31.4 32.3 20.0 50 7.5 NNE 15 26 8 14 1014.3 1014.1 0.0
04/12:00pm 31.9 32.8 20.8 51 7.4 NNE 17 26 9 14 1014.8 1014.6 0.0
04/11:30am 31.0 31.8 20.6 54 6.9 NNE 17 24 9 13 1015.1 1014.9 0.0
04/11:00am 30.7 31.7 20.3 53 6.9 N 15 20 8 11 1015.6 1015.4 0.0
04/10:30am 30.1 31.4 20.1 55 6.6 N 13 19 7 10 1015.7 1015.5 0.0
04/10:00am 30.1 32.2 20.1 55 6.6 N 9 17 5 9 1015.9 1015.7 0.0
04/09:30am 30.5 32.8 20.7 55 6.5 NW 9 15 5 8 1016.1 1015.9 0.0
04/09:00am 29.0 31.1 20.2 59 5.8 NNW 9 17 5 9 1016.1 1015.9 0.0
04/08:30am 28.0 30.2 20.3 63 5.1 NW 9 17 5 9 1016.0 1015.8 0.0
04/08:00am 28.3 30.3 20.8 63 5.0 NNW 11 19 6 10 1016.0 1015.8 0.0
04/07:30am 26.4 28.3 20.5 70 3.9 N 11 17 6 9 1016.0 1015.8 0.0
04/07:00am 25.9 28.4 21.1 75 3.2 NNW 9 13 5 7 1015.5 1015.3 0.0
04/06:30am 24.9 29.4 21.6 82 2.2 CALM 0 6 0 3 1015.1 1014.9 0.0
04/06:00am 23.0 27.0 21.3 90 1.1 SW 2 6 1 3 1014.9 1014.7 0.0
04/05:30am 21.5 25.1 19.8 90 1.1 CALM 0 0 0 0 1014.7 1014.5 0.0
04/05:00am 21.6 23.9 19.9 90 1.1 WNW 7 9 4 5 1014.2 1014.0 0.0
04/04:30am 22.6 26.7 20.7 89 1.2 CALM 0 0 0 0 1014.6 1014.4 0.0
04/04:00am 23.3 26.3 21.2 88 1.4 ENE 7 11 4 6 1014.9 1014.7 0.0
04/03:30am 23.5 25.9 21.6 89 1.3 ENE 11 17 6 9 1015.3 1015.1 0.0
04/03:00am 22.1 24.4 20.7 92 0.9 ENE 9 13 5 7 1015.8 1015.6 0.0
04/02:30am 22.2 25.5 20.7 91 1.0 SSE 4 7 2 4 1016.2 1016.0 0.0
04/02:00am 22.5 25.0 21.1 92 0.9 SSE 9 11 5 6 1016.6 1016.4 0.0
04/01:30am 22.8 23.3 22.0 95 0.5 SE 22 32 12 17 1016.9 1016.7 0.0
04/01:22am 21.7 22.6 20.9 95 0.5 SSE 17 30 9 16 1016.8 1016.6 0.0
04/01:00am 20.4 23.7 19.1 92 0.8 CALM 0 0 0 0 1014.7 1014.5 0.0
04/12:30am 20.6 24.0 19.4 93 0.8 CALM 0 0 0 0 1014.8 1014.6 0.0
04/12:00am 20.2 23.3 18.7 91 0.9 CALM 0 0 0 0 1015.1 1014.9 0.0
 
Date/Time
EST
Temp
°C
App
Temp
°C
Dew
Point
°C
Rel
Hum
%
Delta-T
°C
Wind Press
QNH
hPa
Press
MSL
hPa
Rain since
9am
mm
Dir  Spd
km/h
Gust
km/h
Spd
kts
Gust
kts
03/11:30pm 20.4 23.3 18.3 88 1.3 CALM 0 0 0 0 1015.0 1014.8 0.0
03/11:00pm 21.2 24.5 19.1 88 1.3 CALM 0 0 0 0 1015.2 1015.0 0.0
03/10:30pm 22.0 25.6 19.7 87 1.5 CALM 0 6 0 3 1015.2 1015.0 0.0

Other Formats:

Comma delimited format used in spreadsheet applications
http://www.bom.gov.au/fwo/IDQ60801/IDQ60801.94370.axf

JavaScript Object Notation format (JSON) in row-major order
http://www.bom.gov.au/fwo/IDQ60801/IDQ60801.94370.json